Time;durP1;ratioP1;P1;durP2;ratioP2;P2;SDS_P1;SDS_P2;PMS_P1;PMS_P2;Temp;Humidity;BMP_temperature;BMP_pressure;BME280_temperature;BME280_humidity;BME280_pressure;Samples;Min_cycle;Max_cycle;Signal;HPM_P1;HPM_P2
2021/05/05 00:02:52;;;;;;;4.82;3.50;;;;;;;6.77;90.78;99435.78;6222652;28;20045;-74
2021/05/05 00:05:54;;;;;;;4.43;2.70;;;;;;;6.74;91.24;99426.34;6222650;28;20057;-73
2021/05/05 00:08:55;;;;;;;4.30;2.67;;;;;;;6.71;90.27;99430.91;6223099;28;20100;-74
2021/05/05 00:11:56;;;;;;;2.55;2.08;;;;;;;6.87;89.56;99423.88;6222496;28;20049;-73
2021/05/05 00:14:57;;;;;;;5.70;2.47;;;;;;;6.71;90.43;99428.31;6222314;28;20057;-74
2021/05/05 00:17:58;;;;;;;5.55;2.70;;;;;;;6.72;91.24;99427.38;6222507;28;20088;-73
2021/05/05 00:21:00;;;;;;;4.90;2.60;;;;;;;6.64;90.61;99417.41;6222308;28;20046;-76
2021/05/05 00:24:02;;;;;;;2.90;2.22;;;;;;;6.85;88.99;99423.94;6221384;28;20414;-72
2021/05/05 00:27:04;;;;;;;4.72;2.70;;;;;;;6.86;87.71;99428.25;6222192;28;20057;-75
2021/05/05 00:30:08;;;;;;;3.90;2.05;;;;;;;6.65;88.58;99420.84;6220400;28;20050;-74
2021/05/05 00:33:10;;;;;;;4.32;2.20;;;;;;;6.66;88.82;99419.91;6221394;28;20042;-74
2021/05/05 00:36:12;;;;;;;2.50;2.28;;;;;;;6.72;89.41;99420.41;6222168;28;20422;-75
2021/05/05 00:39:13;;;;;;;4.97;3.00;;;;;;;6.56;90.08;99427.44;6222285;28;20054;-74
2021/05/05 00:42:13;;;;;;;4.90;3.42;;;;;;;6.55;90.25;99421.38;6222345;28;20054;-73
2021/05/05 00:45:16;;;;;;;5.10;3.05;;;;;;;6.54;90.33;99430.16;6221842;28;20705;-74
2021/05/05 00:48:17;;;;;;;3.80;3.00;;;;;;;6.53;90.50;99430.22;6221858;28;20057;-74
2021/05/05 00:51:19;;;;;;;6.10;3.00;;;;;;;6.60;90.67;99431.56;6222278;28;20132;-73
2021/05/05 00:54:21;;;;;;;3.70;3.33;;;;;;;6.55;90.54;99428.38;6221721;28;20104;-73
2021/05/05 00:57:22;;;;;;;5.72;2.95;;;;;;;6.62;90.21;99424.47;6222281;28;20053;-73
2021/05/05 01:00:25;;;;;;;6.35;3.20;;;;;;;6.58;89.84;99422.94;6221736;28;20395;-73
2021/05/05 01:03:25;;;;;;;3.80;2.63;;;;;;;6.68;89.27;99425.91;6221868;28;20046;-74
2021/05/05 01:06:27;;;;;;;6.78;2.85;;;;;;;6.63;88.61;99427.91;6221565;28;20556;-74
2021/05/05 01:09:28;;;;;;;7.93;3.35;;;;;;;6.65;88.84;99426.06;6222115;28;20056;-73
2021/05/05 01:12:29;;;;;;;2.83;2.45;;;;;;;6.63;88.56;99422.69;6221672;28;20557;-74
2021/05/05 01:15:30;;;;;;;5.40;2.63;;;;;;;6.75;87.70;99421.97;6221753;28;20056;-73
2021/05/05 01:18:31;;;;;;;3.50;2.60;;;;;;;6.74;87.78;99420.31;6222046;28;20169;-75
2021/05/05 01:21:33;;;;;;;6.10;2.60;;;;;;;6.69;87.23;99432.78;6221476;28;20069;-74
2021/05/05 01:24:35;;;;;;;7.00;2.90;;;;;;;6.57;88.50;99418.66;6221610;28;20046;-74
2021/05/05 01:27:36;;;;;;;4.82;1.80;;;;;;;6.73;85.18;99426.47;6221421;28;20054;-74
2021/05/05 01:30:37;;;;;;;3.38;1.60;;;;;;;6.60;85.29;99427.16;6221798;28;20057;-74
2021/05/05 01:33:38;;;;;;;4.70;1.52;;;;;;;6.74;83.74;99435.97;6221136;28;20057;-73
2021/05/05 01:36:43;;;;;;;7.63;1.90;;;;;;;6.70;83.01;99414.41;6225081;28;20053;-73
2021/05/05 01:39:44;;;;;;;6.00;1.30;;;;;;;6.65;81.87;99420.84;6226057;28;20046;-75
2021/05/05 01:42:46;;;;;;;11.38;1.67;;;;;;;6.84;81.31;99426.66;6226096;28;20057;-73
2021/05/05 01:45:46;;;;;;;9.02;1.30;;;;;;;6.73;80.03;99416.03;6225712;28;20062;-74
2021/05/05 01:48:48;;;;;;;10.30;1.15;;;;;;;6.61;80.09;99413.19;6225981;28;20493;-72
2021/05/05 01:51:50;;;;;;;6.55;1.77;;;;;;;6.72;80.06;99402.13;6225791;28;20049;-77
2021/05/05 01:54:51;;;;;;;10.32;1.63;;;;;;;6.71;81.11;99416.09;6225432;28;20046;-71
2021/05/05 01:57:52;;;;;;;7.75;1.27;;;;;;;6.60;80.76;99416.72;6225904;28;20100;-74
2021/05/05 02:00:52;;;;;;;4.90;1.05;;;;;;;6.71;80.58;99416.09;6225449;28;20498;-71
2021/05/05 02:03:58;;;;;;;3.60;0.90;;;;;;;6.60;82.11;99410.66;6225066;28;20061;-74
2021/05/05 02:07:00;;;;;;;5.13;1.27;;;;;;;6.52;83.02;99418.94;6225248;28;20046;-73
2021/05/05 02:10:01;;;;;;;6.30;1.20;;;;;;;6.50;83.05;99407.75;6225478;28;20553;-74
2021/05/05 02:13:02;;;;;;;6.20;1.50;;;;;;;6.51;83.60;99427.69;6224954;28;20046;-73
2021/05/05 02:16:03;;;;;;;6.93;1.00;;;;;;;6.56;83.79;99430.03;6225265;28;20521;-73
2021/05/05 02:19:04;;;;;;;4.97;1.13;;;;;;;6.56;84.43;99430.88;6225173;28;20057;-73
2021/05/05 02:22:06;;;;;;;6.07;1.45;;;;;;;6.28;86.96;99426.41;6225369;28;20045;-73
2021/05/05 02:25:08;;;;;;;7.50;1.33;;;;;;;6.15;87.59;99422.81;6225006;28;20061;-73
2021/05/05 02:28:09;;;;;;;9.43;1.40;;;;;;;6.04;87.87;99410.38;6224438;28;20054;-72
2021/05/05 02:31:10;;;;;;;5.35;1.25;;;;;;;6.02;87.71;99427.88;6224689;28;20046;-74
2021/05/05 02:34:12;;;;;;;4.03;1.00;;;;;;;6.12;85.85;99403.88;6224550;28;20524;-73
2021/05/05 02:37:13;;;;;;;7.82;1.10;;;;;;;6.08;86.56;99409.25;6224834;28;20057;-74
2021/05/05 02:40:16;;;;;;;6.15;1.25;;;;;;;6.13;85.95;99409.00;6224620;28;20046;-73
2021/05/05 02:43:17;;;;;;;9.25;1.63;;;;;;;6.20;85.51;99401.69;6224459;28;20143;-74
2021/05/05 02:46:18;;;;;;;9.63;1.48;;;;;;;6.23;85.22;99404.13;6223827;28;20077;-72
2021/05/05 02:49:18;;;;;;;11.25;1.45;;;;;;;6.10;84.63;99412.63;6224558;28;20053;-73
2021/05/05 02:52:20;;;;;;;6.32;1.30;;;;;;;6.12;84.71;99412.53;6224385;28;20116;-73
2021/05/05 02:55:21;;;;;;;7.15;0.90;;;;;;;6.25;83.26;99400.50;6223982;28;20057;-72
2021/05/05 02:58:22;;;;;;;7.18;0.98;;;;;;;6.17;83.90;99412.28;6224234;28;20078;-73
2021/05/05 03:01:23;;;;;;;6.15;0.98;;;;;;;6.28;83.42;99408.16;6224082;28;20616;-75
2021/05/05 03:04:24;;;;;;;4.88;1.00;;;;;;;6.12;84.22;99402.09;6223724;28;20085;-72
2021/05/05 03:07:26;;;;;;;5.97;1.90;;;;;;;6.16;84.17;99411.44;6223980;28;20061;-72
2021/05/05 03:10:27;;;;;;;6.88;1.42;;;;;;;6.28;83.18;99409.91;6224055;28;20103;-73
2021/05/05 03:13:28;;;;;;;6.45;1.25;;;;;;;6.08;84.34;99408.44;6223543;28;20421;-73
2021/05/05 03:16:29;;;;;;;5.53;1.10;;;;;;;6.12;84.78;99412.53;6223887;28;20049;-73
2021/05/05 03:19:29;;;;;;;8.88;1.75;;;;;;;5.94;84.97;99424.00;6223666;28;20092;-75
2021/05/05 03:22:31;;;;;;;2.42;0.90;;;;;;;6.12;83.53;99419.53;6223496;28;20042;-73
2021/05/05 03:25:32;;;;;;;4.28;1.45;;;;;;;6.22;83.08;99412.84;6223439;28;20069;-74
2021/05/05 03:28:33;;;;;;;7.50;1.60;;;;;;;6.11;83.66;99413.47;6223346;28;20140;-73
2021/05/05 03:31:34;;;;;;;8.05;1.60;;;;;;;5.92;84.74;99411.06;6223426;28;20073;-74
2021/05/05 03:34:35;;;;;;;6.57;1.10;;;;;;;5.96;84.28;99403.91;6223181;28;20486;-76
2021/05/05 03:37:37;;;;;;;5.03;1.20;;;;;;;5.95;84.70;99415.25;6223521;28;20050;-75
2021/05/05 03:40:38;;;;;;;7.65;1.10;;;;;;;5.87;85.30;99393.97;6223202;28;20057;-74
2021/05/05 03:43:39;;;;;;;8.10;1.27;;;;;;;5.92;84.61;99418.06;6223179;28;20049;-73
2021/05/05 03:46:39;;;;;;;5.15;1.25;;;;;;;5.97;83.87;99410.81;6223168;28;20053;-73
2021/05/05 03:49:40;;;;;;;8.55;1.20;;;;;;;6.00;84.13;99413.25;6223032;28;20058;-74
2021/05/05 03:52:42;;;;;;;8.38;1.33;;;;;;;5.81;84.42;99406.44;6223133;28;20514;-74
2021/05/05 03:55:43;;;;;;;8.48;1.52;;;;;;;5.98;83.43;99408.09;6222971;28;20057;-73
2021/05/05 03:58:44;;;;;;;8.43;1.45;;;;;;;5.98;83.42;99408.09;6234121;28;20076;-73
2021/05/05 04:01:45;;;;;;;7.25;1.20;;;;;;;5.79;84.94;99402.22;6232880;28;20052;-73
2021/05/05 04:04:46;;;;;;;11.70;1.90;;;;;;;5.72;85.67;99403.47;6233371;28;20176;-73
2021/05/05 04:07:47;;;;;;;9.48;2.08;;;;;;;5.71;85.99;99415.66;6232846;28;20050;-73
2021/05/05 04:10:48;;;;;;;3.75;0.90;;;;;;;5.70;86.53;99410.53;6233341;28;20502;-73
2021/05/05 04:13:49;;;;;;;14.70;2.42;;;;;;;5.64;87.30;99416.09;6232764;28;20052;-74
2021/05/05 04:16:50;;;;;;;7.65;1.33;;;;;;;5.69;86.93;99420.13;6248426;23;20426;-73
2021/05/05 04:19:53;;;;;;;9.32;1.58;;;;;;;5.66;87.56;99416.84;6220618;28;20089;-72
2021/05/05 04:22:55;;;;;;;8.98;1.15;;;;;;;5.61;88.06;99409.25;6221324;28;20084;-71
2021/05/05 04:25:56;;;;;;;11.95;1.65;;;;;;;5.64;88.70;99410.88;6222373;28;20053;-72
2021/05/05 04:28:57;;;;;;;5.53;1.25;;;;;;;5.66;87.87;99415.06;6222176;28;20413;-72
2021/05/05 04:31:58;;;;;;;6.32;1.45;;;;;;;5.76;87.54;99407.56;6221953;28;20049;-72
2021/05/05 04:34:59;;;;;;;13.18;1.85;;;;;;;5.74;86.75;99414.66;6222895;28;20054;-73
2021/05/05 04:38:00;;;;;;;6.10;1.30;;;;;;;5.78;86.27;99414.41;6208546;28;20047;-72
2021/05/05 04:41:01;;;;;;;12.70;1.63;;;;;;;5.76;86.77;99431.88;6197642;28;20046;-73
2021/05/05 04:44:02;;;;;;;12.20;1.70;;;;;;;5.97;85.53;99422.06;6197973;28;20061;-75
2021/05/05 04:47:04;;;;;;;8.07;1.50;;;;;;;5.78;85.63;99431.81;6197631;28;20174;-73
2021/05/05 04:50:07;;;;;;;8.55;1.30;;;;;;;5.78;85.50;99429.22;6197988;28;20050;-72
2021/05/05 04:53:09;;;;;;;7.85;1.75;;;;;;;5.75;85.27;99430.19;6197456;28;20112;-73
2021/05/05 04:56:10;;;;;;;11.13;1.75;;;;;;;5.85;84.60;99435.75;6197815;28;20415;-72
2021/05/05 04:59:11;;;;;;;15.55;1.90;;;;;;;5.91;84.67;99430.22;6197544;28;20050;-74
2021/05/05 05:02:12;;;;;;;14.70;1.83;;;;;;;5.91;83.64;99429.38;6197671;28;20495;-73
2021/05/05 05:05:13;;;;;;;10.27;1.60;;;;;;;5.89;84.87;99445.09;6197572;28;20137;-74
2021/05/05 05:08:15;;;;;;;9.88;1.45;;;;;;;5.91;84.52;99437.19;6197522;28;20054;-72
2021/05/05 05:11:16;;;;;;;11.82;1.98;;;;;;;6.00;83.99;99442.78;6200612;28;20498;-74
2021/05/05 05:14:17;;;;;;;11.63;1.92;;;;;;;6.07;83.19;99451.09;6202201;28;20050;-76
2021/05/05 05:17:19;;;;;;;10.65;1.77;;;;;;;5.97;84.39;99471.63;6202195;28;20084;-74
2021/05/05 05:20:20;;;;;;;6.72;1.50;;;;;;;5.93;84.56;99461.44;6202339;28;20054;-74
2021/05/05 05:23:22;;;;;;;14.18;1.80;;;;;;;5.93;84.95;99467.50;6201698;28;20411;-74
2021/05/05 05:26:23;;;;;;;10.98;1.90;;;;;;;5.98;84.74;99464.63;6201886;28;20514;-72
2021/05/05 05:29:24;;;;;;;15.55;2.35;;;;;;;5.99;85.57;99464.53;6202385;28;20145;-73
2021/05/05 05:32:24;;;;;;;7.55;1.65;;;;;;;6.17;84.58;99470.50;6201362;28;20051;-74
2021/05/05 05:35:26;;;;;;;13.60;2.10;;;;;;;6.07;84.93;99461.50;6201855;28;20555;-73
2021/05/05 05:38:27;;;;;;;11.40;1.60;;;;;;;6.16;84.78;99466.22;6190580;28;20073;-73
2021/05/05 05:41:28;;;;;;;15.20;1.80;;;;;;;6.13;85.48;99469.00;6188679;28;20058;-74
2021/05/05 05:44:29;;;;;;;13.90;2.53;;;;;;;6.12;84.45;99472.53;6187177;28;20541;-73
2021/05/05 05:47:33;;;;;;;14.05;3.13;;;;;;;6.13;84.61;99468.16;6193384;28;20054;-73
2021/05/05 05:50:34;;;;;;;9.48;1.85;;;;;;;6.10;84.83;99466.56;6189912;28;20053;-74
2021/05/05 05:53:35;;;;;;;10.32;1.73;;;;;;;6.10;84.61;99484.84;6200856;28;20050;-72
2021/05/05 05:56:36;;;;;;;21.00;1.67;;;;;;;6.13;84.24;99492.47;6201395;28;20065;-73
2021/05/05 05:59:38;;;;;;;11.07;2.20;;;;;;;6.45;82.27;99482.88;6196600;28;20077;-75
2021/05/05 06:02:39;;;;;;;13.43;2.30;;;;;;;6.19;82.25;99481.72;6201388;28;20057;-73
2021/05/05 06:05:40;;;;;;;14.52;1.73;;;;;;;6.19;83.34;99499.13;6201101;28;20046;-73
2021/05/05 06:08:42;;;;;;;11.00;1.60;;;;;;;6.38;81.72;99493.72;6201278;28;20526;-76
2021/05/05 06:11:43;;;;;;;16.15;1.70;;;;;;;6.21;83.12;99512.91;6201026;28;20050;-74
2021/05/05 06:14:44;;;;;;;52.00;5.68;;;;;;;6.16;84.09;99496.69;6200869;28;20073;-73
2021/05/05 06:17:44;;;;;;;12.85;2.10;;;;;;;6.21;82.63;99500.72;6199374;28;20049;-72
2021/05/05 06:20:45;;;;;;;12.27;2.00;;;;;;;6.31;82.62;99498.44;6200463;28;20506;-73
2021/05/05 06:23:47;;;;;;;12.45;2.13;;;;;;;6.46;81.03;99505.41;6199836;28;20046;-73
2021/05/05 06:26:48;;;;;;;15.23;2.33;;;;;;;6.43;81.84;99516.03;6200488;28;20057;-73
2021/05/05 06:29:49;;;;;;;13.18;2.20;;;;;;;6.37;82.33;99518.97;6200640;28;20050;-73
2021/05/05 06:32:50;;;;;;;11.75;2.55;;;;;;;6.55;81.73;99530.16;6200375;28;20066;-73
2021/05/05 06:35:51;;;;;;;13.68;2.75;;;;;;;6.43;81.26;99521.22;6200418;28;20054;-72
2021/05/05 06:38:52;;;;;;;13.68;1.98;;;;;;;6.44;80.69;99529.91;6199033;28;20085;-73
2021/05/05 06:41:53;;;;;;;10.65;1.90;;;;;;;6.78;78.98;99536.69;6200121;28;20054;-76
2021/05/05 06:44:54;;;;;;;13.15;1.83;;;;;;;6.65;78.76;99539.16;6200455;28;20065;-73
2021/05/05 06:47:55;;;;;;;10.30;1.58;;;;;;;6.54;78.44;99544.09;6200207;28;20069;-73
2021/05/05 06:50:56;;;;;;;10.32;2.00;;;;;;;6.47;78.98;99545.41;6200063;28;20050;-72
2021/05/05 06:53:58;;;;;;;7.82;1.67;;;;;;;6.56;78.96;99537.91;6199851;28;20046;-74
2021/05/05 06:57:00;;;;;;;12.73;2.00;;;;;;;6.68;78.32;99535.53;6199864;28;20510;-74
2021/05/05 07:00:01;;;;;;;10.18;1.92;;;;;;;6.60;77.99;99544.63;6200101;28;20557;-74
2021/05/05 07:03:02;;;;;;;17.55;1.90;;;;;;;6.52;78.27;99548.59;6199815;28;20046;-72
2021/05/05 07:06:03;;;;;;;14.15;1.83;;;;;;;6.68;77.53;99540.75;6199814;28;20626;-75
2021/05/05 07:09:06;;;;;;;17.88;2.42;;;;;;;6.55;78.61;99545.81;6199930;28;20105;-76
2021/05/05 07:12:07;;;;;;;18.65;2.63;;;;;;;6.55;77.87;99561.47;6199754;28;20043;-73
2021/05/05 07:15:09;;;;;;;18.00;2.53;;;;;;;6.52;78.19;99549.44;6199480;28;20050;-72
2021/05/05 07:18:10;;;;;;;13.38;2.28;;;;;;;6.56;78.99;99550.09;6199377;28;20061;-74
2021/05/05 07:21:11;;;;;;;10.18;1.80;;;;;;;6.48;78.99;99547.91;6199650;28;20420;-71
2021/05/05 07:24:13;;;;;;;18.65;3.33;;;;;;;6.47;79.28;99545.41;6199085;28;20078;-72
2021/05/05 07:27:14;;;;;;;16.55;2.20;;;;;;;6.66;78.50;99540.81;6199496;28;20050;-72
2021/05/05 07:30:16;;;;;;;15.45;2.25;;;;;;;6.76;77.52;99560.25;6199179;28;20047;-72
2021/05/05 07:33:17;;;;;;;13.57;1.92;;;;;;;7.01;74.69;99543.19;6199043;28;20053;-73
2021/05/05 07:36:20;;;;;;;22.33;2.55;;;;;;;7.12;74.06;99541.63;6199025;28;20050;-72
2021/05/05 07:46:02;;;;;;;11.55;2.10;;;;;;;7.31;73.98;99558.84;6185376;28;20066;-75
2021/05/05 07:49:03;;;;;;;15.07;2.60;;;;;;;7.28;72.73;99559.88;6190516;28;20105;-74
2021/05/05 07:52:05;;;;;;;16.13;2.38;;;;;;;7.31;70.72;99556.22;6190226;28;20051;-74
2021/05/05 07:55:08;;;;;;;13.70;2.00;;;;;;;7.48;70.89;99553.44;6174220;28;20050;-76
2021/05/05 07:58:11;;;;;;;12.07;2.60;;;;;;;7.63;70.01;99570.00;6174107;28;20459;-76
2021/05/05 08:01:14;;;;;;;13.32;2.10;;;;;;;7.34;70.96;99556.88;6186411;28;20061;-74
2021/05/05 08:04:15;;;;;;;14.35;2.28;;;;;;;7.61;70.71;99558.78;6197842;28;20407;-76
2021/05/05 08:07:18;;;;;;;13.70;2.35;;;;;;;7.63;69.15;99551.72;6198166;28;20061;-76
2021/05/05 08:10:20;;;;;;;13.07;1.88;;;;;;;7.74;69.60;99561.50;6198488;28;20581;-75
2021/05/05 08:13:21;;;;;;;19.25;3.35;;;;;;;7.80;66.14;99548.88;6197702;28;20046;-74
2021/05/05 08:16:22;;;;;;;10.70;2.30;;;;;;;8.09;66.93;99562.81;6198188;28;20568;-76
2021/05/05 08:19:23;;;;;;;12.40;1.92;;;;;;;7.98;65.12;99560.00;6177168;28;20474;-75
2021/05/05 08:22:24;;;;;;;16.73;2.08;;;;;;;8.01;66.38;99549.34;6173849;28;20055;-74
2021/05/05 08:25:26;;;;;;;10.30;1.83;;;;;;;7.99;65.35;99550.38;6185950;28;20057;-74
2021/05/05 08:28:26;;;;;;;22.20;2.67;;;;;;;7.89;65.11;99576.25;6197616;28;20088;-75
2021/05/05 08:31:27;;;;;;;13.68;1.83;;;;;;;8.15;66.49;99569.44;6198225;28;20515;-77
2021/05/05 08:34:29;;;;;;;13.23;2.05;;;;;;;8.13;66.28;99561.69;6176541;28;20062;-75
2021/05/05 08:37:30;;;;;;;10.20;2.10;;;;;;;8.11;64.59;99581.84;6173209;28;20058;-75
2021/05/05 08:40:32;;;;;;;9.80;1.85;;;;;;;7.88;65.33;99572.81;6173673;28;20057;-74
2021/05/05 08:43:33;;;;;;;15.93;2.15;;;;;;;7.94;65.30;99565.50;6189368;28;20078;-73
2021/05/05 08:46:34;;;;;;;17.30;2.83;;;;;;;8.02;65.74;99569.34;6181140;28;20534;-74
2021/05/05 08:49:35;;;;;;;13.15;2.00;;;;;;;8.31;65.03;99577.16;6173695;28;20134;-77
2021/05/05 08:52:37;;;;;;;13.80;2.33;;;;;;;8.29;65.19;99574.63;6173389;28;20078;-76
2021/05/05 08:55:39;;;;;;;8.75;1.73;;;;;;;8.47;65.25;99579.69;6173729;28;20053;-76
2021/05/05 08:58:40;;;;;;;14.10;1.90;;;;;;;8.43;63.78;99573.81;6173389;28;20050;-76
2021/05/05 09:01:42;;;;;;;8.45;1.95;;;;;;;8.53;63.93;99569.66;6173718;28;20078;-76
2021/05/05 09:04:55;;;;;;;10.52;1.90;;;;;;;8.51;63.77;99561.06;6185216;28;20063;-76
2021/05/05 09:08:09;;;;;;;7.82;1.75;;;;;;;8.63;63.47;99573.38;6184119;28;20057;-76
2021/05/05 09:11:11;;;;;;;9.18;1.88;;;;;;;8.66;60.98;99584.59;6173553;28;20062;-76
2021/05/05 09:14:12;;;;;;;10.75;2.03;;;;;;;8.66;61.20;99564.47;6172727;28;20090;-75
2021/05/05 09:17:18;;;;;;;7.72;1.67;;;;;;;8.57;62.84;99571.13;6172835;28;20054;-75
2021/05/05 09:20:22;;;;;;;8.82;1.58;;;;;;;8.70;63.42;99580.84;6173403;28;20047;-75
2021/05/05 09:23:23;;;;;;;8.40;1.48;;;;;;;8.87;62.43;99570.94;6172463;28;20074;-72
2021/05/05 09:26:35;;;;;;;15.23;2.33;;;;;;;9.06;61.81;99590.72;6173159;28;20093;-74
2021/05/05 09:29:42;;;;;;;5.43;1.35;;;;;;;9.08;60.35;99573.97;6173115;28;20051;-76
2021/05/05 09:32:53;;;;;;;8.13;1.80;;;;;;;8.97;59.99;99565.09;6180562;28;20068;-74
2021/05/05 09:35:56;;;;;;;9.65;1.50;;;;;;;9.08;60.04;99568.72;6197018;28;20491;-72
2021/05/05 09:38:57;;;;;;;18.02;2.45;;;;;;;9.02;59.85;99570.88;6196958;28;20062;-75
2021/05/05 09:41:59;;;;;;;11.45;1.98;;;;;;;9.18;58.94;99576.81;6197274;28;20078;-75
2021/05/05 09:45:04;;;;;;;8.80;1.48;;;;;;;9.21;59.87;99578.38;6196419;28;20042;-73
2021/05/05 09:48:06;;;;;;;9.55;1.77;;;;;;;9.08;60.42;99581.81;6196901;28;20515;-75
2021/05/05 09:51:07;;;;;;;16.50;2.00;;;;;;;8.80;58.86;99603.72;6195896;28;20565;-76
2021/05/05 09:54:07;;;;;;;13.43;1.65;;;;;;;8.52;61.09;99609.88;6196809;28;20050;-74
2021/05/05 09:57:20;;;;;;;12.23;2.90;;;;;;;8.29;60.79;99598.19;6199700;28;20054;-75
2021/05/05 10:00:21;;;;;;;15.18;2.33;;;;;;;8.24;61.58;99615.13;6201390;28;20494;-76
2021/05/05 10:03:34;;;;;;;8.40;2.05;;;;;;;8.20;63.15;99611.00;6201497;28;20051;-75
2021/05/05 10:06:37;;;;;;;12.98;1.70;;;;;;;8.32;63.41;99632.03;6201194;28;20054;-75
2021/05/05 10:09:38;;;;;;;8.73;1.73;;;;;;;8.24;62.44;99631.66;6201459;28;20051;-74
2021/05/05 10:12:40;;;;;;;10.02;1.98;;;;;;;8.27;63.83;99607.94;6201182;28;20046;-74
2021/05/05 10:15:42;;;;;;;7.88;1.60;;;;;;;8.56;64.67;99605.28;6200793;28;20054;-76
2021/05/05 10:18:45;;;;;;;13.80;2.13;;;;;;;8.98;62.95;99619.19;6234967;23;20081;-77
2021/05/05 10:21:54;;;;;;;10.48;1.80;;;;;;;9.05;62.32;99610.84;6226250;28;20137;-77
2021/05/05 10:24:55;;;;;;;15.70;1.77;;;;;;;8.98;63.41;99606.09;6217580;28;20042;-76
2021/05/05 10:27:58;;;;;;;8.63;1.88;;;;;;;9.20;63.49;99619.47;6223028;28;20074;-76
2021/05/05 10:30:59;;;;;;;11.07;1.85;;;;;;;9.23;62.88;99626.31;6187155;28;20047;-79
2021/05/05 10:34:01;;;;;;;14.35;1.70;;;;;;;9.15;60.98;99617.16;6188731;28;20125;-79
2021/05/05 10:37:03;;;;;;;7.70;1.77;;;;;;;9.22;61.78;99614.13;6195126;28;20046;-80
2021/05/05 10:40:15;;;;;;;10.85;1.65;;;;;;;9.69;62.27;99604.88;6194992;28;20080;-77
2021/05/05 10:43:16;;;;;;;4.80;1.33;;;;;;;9.77;59.50;99605.19;6189034;28;20054;-76
2021/05/05 10:46:31;;;;;;;6.55;1.73;;;;;;;10.04;59.57;99598.06;6194325;28;20047;-76
2021/05/05 10:49:32;;;;;;;13.63;1.50;;;;;;;9.73;58.81;99622.94;6189077;28;20065;-78
2021/05/05 10:53:05;;;;;;;7.05;1.30;;;;;;;9.55;57.62;99634.66;6190523;28;20042;-76
2021/05/05 10:56:21;;;;;;;5.57;1.05;;;;;;;9.36;57.96;99651.63;6184818;28;20054;-78
2021/05/05 10:59:26;;;;;;;11.75;1.05;;;;;;;9.23;59.64;99647.28;6193791;28;20058;-77
2021/05/05 11:02:58;;;;;;;7.05;1.10;;;;;;;8.97;62.27;99647.19;6180517;28;20104;-77
2021/05/05 11:05:58;;;;;;;8.30;1.42;;;;;;;8.74;64.66;99642.56;6189082;28;20129;-81
2021/05/05 11:09:44;;;;;;;7.75;1.10;;;;;;;9.04;64.82;99668.59;6188578;28;20058;-77
2021/05/05 11:12:45;;;;;;;7.43;1.23;;;;;;;9.05;64.43;99662.41;6201782;28;20478;-78
2021/05/05 11:15:54;;;;;;;17.50;2.67;;;;;;;9.30;65.34;99659.88;6198945;28;20137;-76
2021/05/05 11:18:55;;;;;;;14.35;1.70;;;;;;;9.40;65.53;99667.97;6200889;28;20061;-77
2021/05/05 11:21:56;;;;;;;10.45;0.85;;;;;;;9.57;65.10;99677.34;6200217;28;20507;-78
2021/05/05 11:24:57;;;;;;;10.35;1.10;;;;;;;9.47;64.19;99726.94;6201397;28;20133;-77
2021/05/05 11:27:59;;;;;;;13.30;1.20;;;;;;;8.69;75.20;99713.56;6201590;28;20061;-78
2021/05/05 11:31:01;;;;;;;9.30;0.90;;;;;;;8.28;79.10;99719.53;6200273;28;20180;-78
2021/05/05 11:34:03;;;;;;;7.15;1.25;;;;;;;8.53;77.63;99715.44;6198354;28;20047;-73
2021/05/05 11:37:08;;;;;;;5.72;1.27;;;;;;;8.85;76.75;99721.31;6191995;28;20054;-77
2021/05/05 11:40:13;;;;;;;8.45;2.30;;;;;;;9.22;75.31;99722.47;6194876;28;20046;-77
2021/05/05 11:43:19;;;;;;;6.00;0.93;;;;;;;9.54;72.78;99704.63;6199901;28;20046;-81
2021/05/05 11:46:21;;;;;;;2.83;0.68;;;;;;;9.87;68.88;99717.28;6200177;28;20050;-80
2021/05/05 11:49:30;;;;;;;5.50;0.70;;;;;;;10.25;66.64;99720.91;6199377;28;20062;-78
2021/05/05 11:52:33;;;;;;;3.25;1.33;;;;;;;9.72;66.34;99739.31;6199023;28;20043;-76
2021/05/05 11:55:35;;;;;;;2.50;0.93;;;;;;;9.21;69.93;99746.97;6198548;28;20085;-76
2021/05/05 11:58:36;;;;;;;4.22;1.10;;;;;;;8.86;71.42;99752.66;6199111;28;20573;-78
2021/05/05 12:01:38;;;;;;;6.55;1.05;;;;;;;8.57;72.32;99751.81;6197605;28;20058;-77
2021/05/05 12:04:41;;;;;;;10.18;1.00;;;;;;;9.08;71.87;99753.94;6199379;28;20050;-76
2021/05/05 12:07:42;;;;;;;9.27;1.17;;;;;;;9.48;67.36;99748.75;6199528;28;20550;-75
2021/05/05 12:10:46;;;;;;;11.80;1.25;;;;;;;9.52;66.76;99748.47;6198979;28;20050;-76
2021/05/05 12:13:47;;;;;;;9.85;1.33;;;;;;;9.87;65.87;99766.31;6199601;28;20411;-79
2021/05/05 12:16:47;;;;;;;10.82;1.15;;;;;;;9.73;63.98;99777.72;6198877;28;20141;-73
2021/05/05 12:20:00;;;;;;;15.13;1.13;;;;;;;9.91;64.07;99773.03;6192837;28;20050;-77
2021/05/05 12:23:00;;;;;;;7.03;1.20;;;;;;;10.28;64.25;99773.25;6176451;28;20053;-77
2021/05/05 12:26:15;;;;;;;4.70;1.38;;;;;;;9.99;63.41;99780.38;6174775;28;20059;-73
2021/05/05 12:29:16;;;;;;;3.78;0.75;;;;;;;10.13;64.44;99785.59;6175004;28;20062;-77
2021/05/05 12:32:17;;;;;;;5.60;0.95;;;;;;;10.41;64.07;99792.47;6179756;28;20050;-77
2021/05/05 12:35:23;;;;;;;4.75;1.13;;;;;;;10.58;63.48;99792.16;6199655;28;20134;-79
2021/05/05 12:38:24;;;;;;;2.17;0.95;;;;;;;11.21;62.54;99794.78;6182625;28;20046;-77
2021/05/05 12:41:38;;;;;;;2.63;0.70;;;;;;;11.10;61.08;99791.16;6176447;28;20095;-77
2021/05/05 12:44:39;;;;;;;4.97;1.02;;;;;;;10.87;60.13;99811.16;6174624;28;20051;-76
2021/05/05 12:47:42;;;;;;;3.90;0.90;;;;;;;10.10;62.17;99802.38;6174117;28;20058;-76
2021/05/05 12:50:43;;;;;;;6.25;1.42;;;;;;;9.47;66.42;99841.50;6174288;28;20467;-76
2021/05/05 12:53:50;;;;;;;10.60;1.30;;;;;;;9.04;70.80;99825.84;6173470;28;20051;-76
2021/05/05 12:56:52;;;;;;;9.55;1.73;;;;;;;8.96;71.33;99835.94;6174627;28;20419;-78
2021/05/05 12:59:54;;;;;;;9.38;2.03;;;;;;;9.15;68.68;99829.47;6192902;28;20054;-76
2021/05/05 13:03:00;;;;;;;10.73;1.30;;;;;;;9.04;68.64;99850.25;6198954;28;20056;-78
2021/05/05 13:06:04;;;;;;;8.90;1.20;;;;;;;9.04;68.90;99845.03;6199599;28;20081;-78
2021/05/05 13:09:11;;;;;;;8.35;1.38;;;;;;;9.08;70.15;99888.47;6199691;28;20134;-77
2021/05/05 13:12:21;;;;;;;6.05;1.00;;;;;;;8.19;78.28;99894.59;6198014;28;20431;-76
2021/05/05 13:15:31;;;;;;;4.22;1.35;;;;;;;7.76;82.93;99903.06;6197962;28;20066;-74
2021/05/05 13:18:56;;;;;;;7.18;1.35;;;;;;;7.54;85.53;99902.56;6197863;28;20058;-79
2021/05/05 13:26:06;;;;;;;5.32;1.42;;;;;;;7.27;89.66;99895.28;6183379;28;20066;-76
2021/05/05 13:32:31;;;;;;;6.22;0.90;;;;;;;8.02;85.03;99913.88;6152021;28;20050;-78
2021/05/05 13:35:35;;;;;;;4.30;1.20;;;;;;;8.51;83.27;99905.88;6203484;28;20407;-75
2021/05/05 13:38:37;;;;;;;4.55;1.13;;;;;;;8.69;82.83;99903.94;6195152;28;20061;-78
2021/05/05 13:41:38;;;;;;;5.30;1.30;;;;;;;8.56;82.92;99917.75;6195719;28;20074;-76
2021/05/05 13:44:44;;;;;;;6.38;1.88;;;;;;;8.09;84.84;99912.59;6201721;28;20097;-76
2021/05/05 13:47:48;;;;;;;10.73;1.83;;;;;;;7.48;88.80;99969.09;6201601;28;20141;-76
2021/05/05 13:50:48;;;;;;;13.52;2.13;;;;;;;6.86;96.79;100013.22;6180267;28;20055;-77
2021/05/05 13:53:51;;;;;;;5.10;1.00;;;;;;;5.92;94.27;99976.88;6176744;28;20054;-75
2021/05/05 13:56:52;;;;;;;3.05;0.80;;;;;;;5.24;96.70;99957.38;6178067;28;20047;-84
2021/05/05 13:59:54;;;;;;;5.95;0.90;;;;;;;5.04;99.66;99958.22;6178857;28;20089;-79
2021/05/05 14:02:55;;;;;;;6.65;1.15;;;;;;;5.17;100.00;99964.59;6195470;28;20046;-80
2021/05/05 14:05:58;;;;;;;7.75;1.90;;;;;;;5.31;100.00;99969.19;6203314;28;20057;-78
2021/05/05 14:08:59;;;;;;;4.25;1.33;;;;;;;5.46;100.00;99978.09;6189025;28;20541;-79
2021/05/05 14:12:00;;;;;;;5.53;0.88;;;;;;;5.61;100.00;99985.22;6187109;28;20046;-78
2021/05/05 14:15:02;;;;;;;6.80;1.30;;;;;;;5.91;100.00;99993.41;6185955;28;20053;-78
2021/05/05 14:18:03;;;;;;;7.88;1.58;;;;;;;6.27;100.00;99997.88;6186721;28;20050;-78
2021/05/05 14:21:08;;;;;;;15.32;2.72;;;;;;;6.83;100.00;100007.31;6187132;28;20057;-78
2021/05/05 14:24:11;;;;;;;12.68;1.77;;;;;;;7.66;98.40;99987.34;6187165;28;20047;-76
2021/05/05 14:27:12;;;;;;;14.27;1.52;;;;;;;8.03;93.05;99986.19;6187649;28;20466;-77
2021/05/05 14:30:15;;;;;;;11.27;1.60;;;;;;;8.61;95.62;99986.41;6189775;28;20047;-76
2021/05/05 14:33:16;;;;;;;5.55;1.55;;;;;;;9.05;93.69;99975.13;6188571;28;20046;-76
2021/05/05 14:36:17;;;;;;;16.70;2.17;;;;;;;8.79;89.93;100009.88;6187672;28;20046;-77
2021/05/05 14:39:20;;;;;;;9.10;1.65;;;;;;;8.19;91.30;100009.75;6188620;28;20046;-76